Time;durP1;ratioP1;P1;durP2;ratioP2;P2;SDS_P1;SDS_P2;PMS_P1;PMS_P2;Temp;Humidity;BMP_temperature;BMP_pressure;BME280_temperature;BME280_humidity;BME280_pressure;Samples;Min_cycle;Max_cycle;Signal;HPM_P1;HPM_P2
2023/09/03 00:00:40;;;;;;;20.50;16.77;;;;;;;15.85;95.08;102494.25;5040216;28;20025;-67
2023/09/03 00:03:06;;;;;;;21.60;17.80;;;;;;;15.82;95.38;102491.91;5036463;28;20514;-68
2023/09/03 00:05:31;;;;;;;19.35;16.55;;;;;;;15.80;95.73;102497.41;5046374;28;20025;-67
2023/09/03 00:07:57;;;;;;;20.05;16.48;;;;;;;15.80;95.92;102492.06;5034797;28;20029;-67
2023/09/03 00:10:23;;;;;;;18.55;16.63;;;;;;;15.75;96.01;102489.03;5037071;28;20112;-67
2023/09/03 00:12:48;;;;;;;20.98;16.27;;;;;;;15.66;95.80;102478.47;5039930;28;20052;-67
2023/09/03 00:15:14;;;;;;;18.95;16.70;;;;;;;15.62;95.98;102479.81;5040369;28;20057;-67
2023/09/03 00:17:39;;;;;;;19.02;15.77;;;;;;;15.60;96.08;102476.44;5039185;28;20386;-68
2023/09/03 00:20:05;;;;;;;18.40;16.25;;;;;;;15.54;96.31;102483.25;5042151;28;20025;-67
2023/09/03 00:22:30;;;;;;;16.67;14.93;;;;;;;15.57;96.50;102490.97;5042783;28;20021;-67
2023/09/03 00:24:56;;;;;;;18.40;15.32;;;;;;;15.53;96.47;102489.63;5038137;28;20025;-67
2023/09/03 00:27:21;;;;;;;18.27;15.75;;;;;;;15.48;96.35;102482.06;5040294;28;20112;-67
2023/09/03 00:29:46;;;;;;;17.05;15.07;;;;;;;15.46;96.61;102488.59;5038957;28;20391;-67
2023/09/03 00:32:11;;;;;;;20.42;15.18;;;;;;;15.38;96.56;102489.41;5031351;28;20025;-67
2023/09/03 00:34:37;;;;;;;17.67;15.18;;;;;;;15.33;96.35;102486.38;5037646;28;20079;-67
2023/09/03 00:37:02;;;;;;;18.30;13.73;;;;;;;15.27;96.71;102492.38;5035413;28;20507;-67
2023/09/03 00:39:27;;;;;;;16.83;14.50;;;;;;;15.25;96.69;102491.69;5037752;28;20659;-67
2023/09/03 00:41:53;;;;;;;17.25;13.60;;;;;;;15.27;96.96;102497.72;5027358;28;20025;-67
2023/09/03 00:44:18;;;;;;;15.63;13.95;;;;;;;15.28;97.46;102501.22;5033366;28;20064;-67
2023/09/03 00:46:44;;;;;;;15.75;13.55;;;;;;;15.32;97.33;102497.22;5034049;28;20029;-67
2023/09/03 00:49:12;;;;;;;14.88;13.38;;;;;;;15.29;97.15;102497.56;5037041;28;20032;-67
2023/09/03 00:51:38;;;;;;;15.88;13.90;;;;;;;15.26;97.13;102493.38;5028954;28;20499;-67
2023/09/03 00:54:04;;;;;;;15.25;12.73;;;;;;;15.29;97.08;102508.25;5034507;28;20040;-67
2023/09/03 00:56:30;;;;;;;14.45;12.38;;;;;;;15.26;97.15;102508.59;5033323;28;20029;-67
2023/09/03 00:58:55;;;;;;;16.27;13.60;;;;;;;15.23;96.76;102512.41;5028664;28;20021;-67
2023/09/03 01:01:21;;;;;;;14.13;12.65;;;;;;;15.21;96.64;102516.25;5032711;28;20022;-67
2023/09/03 01:03:48;;;;;;;15.45;13.13;;;;;;;15.18;96.61;102526.28;5030456;28;20055;-67
2023/09/03 01:06:13;;;;;;;14.43;12.90;;;;;;;15.09;96.47;102518.38;5034803;28;20688;-67
2023/09/03 01:08:39;;;;;;;15.93;12.80;;;;;;;15.05;96.46;102517.88;5037129;28;20033;-67
2023/09/03 01:11:32;;;;;;;15.90;12.35;;;;;;;15.04;96.69;102510.00;5032640;28;20032;-67
2023/09/03 01:14:20;;;;;;;15.35;13.07;;;;;;;14.96;97.18;102499.22;5035605;28;20038;-67
2023/09/03 01:16:56;;;;;;;12.57;10.15;;;;;;;14.82;96.97;102496.16;5034002;28;20032;-67
2023/09/03 01:19:35;;;;;;;12.10;10.75;;;;;;;14.77;96.93;102498.47;5040249;28;20194;-68
2023/09/03 01:22:00;;;;;;;11.90;10.70;;;;;;;14.85;97.07;102497.69;5042553;28;20104;-67
2023/09/03 01:24:52;;;;;;;16.15;12.68;;;;;;;14.89;97.89;102507.06;5038175;28;20586;-67
2023/09/03 01:27:46;;;;;;;13.05;11.65;;;;;;;14.91;98.30;102512.25;5027803;28;20026;-67
2023/09/03 01:30:15;;;;;;;12.70;11.40;;;;;;;14.88;97.78;102505.38;5031621;28;20537;-68
2023/09/03 01:32:41;;;;;;;13.32;12.02;;;;;;;14.86;97.90;102505.53;5033585;28;20056;-67
2023/09/03 01:35:08;;;;;;;12.63;11.25;;;;;;;14.83;97.94;102507.69;5029193;28;20036;-67
2023/09/03 01:37:34;;;;;;;15.80;11.32;;;;;;;14.88;97.89;102513.41;5033439;28;20187;-67
2023/09/03 01:39:59;;;;;;;13.75;12.45;;;;;;;14.87;98.16;102515.25;5035827;28;20021;-67
2023/09/03 01:42:24;;;;;;;12.98;11.43;;;;;;;14.87;98.15;102506.38;5031747;28;20056;-67
2023/09/03 01:44:50;;;;;;;12.95;11.50;;;;;;;14.82;97.98;102500.66;5030777;28;20031;-68
2023/09/03 01:47:38;;;;;;;12.70;11.40;;;;;;;14.79;97.65;102504.50;5040599;28;20017;-68
2023/09/03 01:50:17;;;;;;;13.73;10.88;;;;;;;14.70;97.48;102512.59;5031365;28;20022;-67
2023/09/03 01:52:49;;;;;;;12.65;11.35;;;;;;;14.63;97.54;102507.06;5033093;28;20025;-67
2023/09/03 01:55:18;;;;;;;11.82;10.35;;;;;;;14.52;97.26;102508.16;5034581;28;20513;-67
2023/09/03 01:57:47;;;;;;;13.98;10.90;;;;;;;14.60;97.57;102519.91;5035517;28;20434;-67
2023/09/03 02:00:16;;;;;;;12.38;11.18;;;;;;;14.59;97.47;102516.38;5033032;28;20033;-67
2023/09/03 02:02:43;;;;;;;12.13;10.73;;;;;;;14.56;97.78;102519.38;5032864;28;20486;-67
2023/09/03 02:05:08;;;;;;;11.48;10.38;;;;;;;14.51;97.44;102530.53;5036252;28;20025;-67
2023/09/03 02:07:35;;;;;;;16.38;12.38;;;;;;;14.57;97.66;102529.06;5038708;28;20113;-67
2023/09/03 02:10:00;;;;;;;14.98;12.10;;;;;;;14.54;97.89;102529.38;5035167;28;20116;-67
2023/09/03 02:12:25;;;;;;;13.80;12.35;;;;;;;14.56;97.85;102535.41;5033918;28;20499;-67
2023/09/03 02:14:52;;;;;;;14.95;12.10;;;;;;;14.56;98.24;102552.28;5041206;28;20443;-67
2023/09/03 02:17:20;;;;;;;13.75;12.35;;;;;;;14.54;98.28;102546.25;5035290;28;20028;-67
2023/09/03 02:19:49;;;;;;;15.40;13.43;;;;;;;14.55;98.34;102544.44;5037843;28;20029;-67
2023/09/03 02:22:14;;;;;;;15.30;13.05;;;;;;;14.52;98.25;102537.56;5035279;28;20047;-67
2023/09/03 02:24:40;;;;;;;16.65;12.75;;;;;;;14.46;98.20;102543.53;5033620;28;20106;-67
2023/09/03 02:27:05;;;;;;;12.68;11.40;;;;;;;14.36;97.97;102547.22;5035832;28;20028;-67
2023/09/03 02:29:30;;;;;;;15.95;12.27;;;;;;;14.30;98.11;102547.84;5035468;28;20253;-67
2023/09/03 02:31:55;;;;;;;13.02;11.00;;;;;;;14.18;97.90;102541.91;5035460;28;20024;-67
2023/09/03 02:34:21;;;;;;;13.63;12.23;;;;;;;14.15;97.92;102547.53;5041004;28;21518;-67
2023/09/03 02:36:46;;;;;;;15.52;12.27;;;;;;;14.12;98.22;102539.81;5036244;28;20086;-67
2023/09/03 02:39:12;;;;;;;16.95;13.88;;;;;;;14.03;98.14;102532.72;5037092;28;20034;-67
2023/09/03 02:41:38;;;;;;;17.48;14.07;;;;;;;13.94;98.66;102532.66;5035558;28;20020;-67
2023/09/03 02:44:03;;;;;;;16.33;13.70;;;;;;;13.92;99.26;102536.47;5039029;28;20435;-67
2023/09/03 02:46:29;;;;;;;15.75;13.63;;;;;;;13.92;99.71;102531.13;5036200;28;20026;-67
2023/09/03 02:48:54;;;;;;;18.10;13.98;;;;;;;13.90;99.96;102525.09;5032155;28;20026;-67
2023/09/03 02:51:20;;;;;;;15.23;13.70;;;;;;;13.96;100.00;102529.84;5038751;28;20029;-67
2023/09/03 02:53:46;;;;;;;15.55;13.77;;;;;;;13.96;100.00;102532.50;5030935;28;20029;-67
2023/09/03 02:56:14;;;;;;;14.88;13.05;;;;;;;13.90;100.00;102538.44;5030598;28;20039;-67
2023/09/03 02:58:41;;;;;;;14.43;12.87;;;;;;;13.92;99.88;102548.00;5031881;28;20079;-67
2023/09/03 03:01:07;;;;;;;14.63;11.82;;;;;;;13.92;99.94;102547.16;5039622;28;20026;-67
2023/09/03 03:03:33;;;;;;;14.00;12.50;;;;;;;13.92;99.93;102550.66;5031961;28;20599;-67
2023/09/03 03:05:58;;;;;;;13.38;11.95;;;;;;;13.87;99.64;102552.06;5033140;28;20070;-67
2023/09/03 03:08:24;;;;;;;13.07;11.77;;;;;;;13.81;99.75;102542.00;5034453;28;20040;-67
2023/09/03 03:10:50;;;;;;;12.90;11.60;;;;;;;13.70;99.30;102545.72;5033191;28;20483;-67
2023/09/03 03:13:15;;;;;;;12.55;11.25;;;;;;;13.68;99.33;102537.03;5032310;28;20025;-67
2023/09/03 03:15:40;;;;;;;10.82;9.80;;;;;;;13.62;99.46;102524.28;5040485;28;20087;-67
2023/09/03 03:18:06;;;;;;;10.68;9.68;;;;;;;13.58;99.78;102514.88;5029503;28;20182;-67
2023/09/03 03:20:31;;;;;;;16.02;12.35;;;;;;;13.57;99.89;102510.53;5040069;28;20021;-67
2023/09/03 03:22:56;;;;;;;14.32;11.95;;;;;;;13.54;100.00;102509.00;5038429;28;20177;-67
2023/09/03 03:25:22;;;;;;;13.40;12.10;;;;;;;13.52;100.00;102500.31;5032234;28;20036;-67
2023/09/03 03:27:47;;;;;;;12.60;10.40;;;;;;;13.47;100.00;102501.75;5035334;28;20615;-67
2023/09/03 03:30:12;;;;;;;11.95;10.75;;;;;;;13.52;100.00;102504.78;5032308;28;20032;-67
2023/09/03 03:32:37;;;;;;;13.98;12.10;;;;;;;13.55;100.00;102512.50;5033843;28;20026;-66
2023/09/03 03:35:03;;;;;;;13.38;11.98;;;;;;;13.59;100.00;102522.75;5043050;28;20028;-66
2023/09/03 03:37:28;;;;;;;9.63;8.63;;;;;;;13.54;100.00;102532.19;5034273;28;20112;-67
2023/09/03 03:39:54;;;;;;;10.73;9.68;;;;;;;13.56;100.00;102541.72;5032007;28;20029;-67
2023/09/03 03:42:19;;;;;;;13.40;10.20;;;;;;;13.60;100.00;102555.63;5037062;28;20024;-67
2023/09/03 03:44:46;;;;;;;11.73;10.50;;;;;;;13.58;100.00;102554.91;5029607;28;20163;-67
2023/09/03 03:47:11;;;;;;;13.85;11.77;;;;;;;13.58;100.00;102544.22;5037307;28;20033;-67
2023/09/03 03:49:36;;;;;;;15.15;12.32;;;;;;;13.62;100.00;102540.31;5036794;28;20051;-67
2023/09/03 03:52:01;;;;;;;13.30;11.90;;;;;;;13.69;100.00;102544.06;5033655;28;20151;-67
2023/09/03 03:54:27;;;;;;;15.02;13.32;;;;;;;13.74;100.00;102549.78;5031016;28;20036;-67
2023/09/03 03:56:52;;;;;;;13.82;12.27;;;;;;;13.76;100.00;102550.47;5032912;28;20029;-67
2023/09/03 03:59:17;;;;;;;18.45;13.18;;;;;;;13.81;100.00;102552.69;5037585;28;20101;-68
2023/09/03 04:01:44;;;;;;;14.90;12.30;;;;;;;13.81;100.00;102556.19;5031662;28;20025;-67
2023/09/03 04:04:09;;;;;;;15.73;12.40;;;;;;;13.86;100.00;102561.09;5033829;28;21375;-67
2023/09/03 04:06:35;;;;;;;15.60;12.65;;;;;;;13.90;100.00;102562.50;5032550;28;20032;-67
2023/09/03 04:09:00;;;;;;;17.20;13.52;;;;;;;13.91;100.00;102570.34;5029949;28;20075;-67
2023/09/03 04:11:25;;;;;;;14.57;13.07;;;;;;;13.90;100.00;102571.34;5033678;28;20021;-66
2023/09/03 04:13:50;;;;;;;12.63;11.32;;;;;;;13.91;100.00;102577.53;5028390;28;20025;-67
2023/09/03 04:16:19;;;;;;;13.95;12.15;;;;;;;13.90;100.00;102570.50;5034763;28;20648;-67
2023/09/03 04:18:45;;;;;;;11.50;10.40;;;;;;;13.90;100.00;102571.34;5031587;28;20394;-67
2023/09/03 04:21:11;;;;;;;13.07;10.38;;;;;;;13.95;100.00;102568.22;5031521;28;20045;-67
2023/09/03 04:23:37;;;;;;;13.85;11.38;;;;;;;13.91;100.00;102559.66;5031061;28;20109;-66
2023/09/03 04:26:03;;;;;;;11.98;10.70;;;;;;;13.85;100.00;102565.59;5034331;28;20601;-67
2023/09/03 04:28:28;;;;;;;13.45;12.05;;;;;;;13.82;100.00;102557.03;5034563;28;20487;-67
2023/09/03 04:31:03;;;;;;;11.93;10.68;;;;;;;13.74;100.00;102560.47;5031775;28;20079;-67
2023/09/03 04:33:29;;;;;;;11.27;9.98;;;;;;;13.67;100.00;102570.06;5034300;28;20399;-67
2023/09/03 04:35:55;;;;;;;12.43;10.73;;;;;;;13.62;100.00;102565.19;5034125;28;20043;-67
2023/09/03 04:38:21;;;;;;;12.88;11.25;;;;;;;13.55;100.00;102569.41;5033272;28;20033;-67
2023/09/03 04:40:46;;;;;;;14.02;12.55;;;;;;;13.55;100.00;102563.22;5031183;28;20109;-67
2023/09/03 04:43:12;;;;;;;14.77;13.00;;;;;;;13.54;100.00;102565.06;5032035;28;20107;-67
2023/09/03 04:45:37;;;;;;;16.13;12.80;;;;;;;13.51;100.00;102570.69;5031118;28;20429;-66
2023/09/03 04:48:03;;;;;;;14.48;12.95;;;;;;;13.55;100.00;102582.75;5032745;28;20064;-66
2023/09/03 04:50:28;;;;;;;14.52;13.05;;;;;;;13.57;100.00;102598.63;5036915;28;20150;-67
2023/09/03 04:52:56;;;;;;;12.23;10.68;;;;;;;13.54;100.00;102591.75;5029658;28;20108;-67
2023/09/03 04:55:22;;;;;;;9.30;8.40;;;;;;;13.54;100.00;102601.56;5031017;28;20057;-66
2023/09/03 04:57:48;;;;;;;8.10;7.40;;;;;;;13.47;100.00;102603.16;5037119;28;20068;-66
2023/09/03 05:00:13;;;;;;;22.48;8.48;;;;;;;13.40;100.00;102602.06;5033149;28;20075;-66
2023/09/03 05:02:38;;;;;;;22.40;9.00;;;;;;;13.37;100.00;102611.22;5036143;28;20021;-67
2023/09/03 05:05:04;;;;;;;12.32;10.77;;;;;;;13.29;100.00;102617.25;5032707;28;20025;-67
2023/09/03 05:07:30;;;;;;;17.45;12.52;;;;;;;13.31;100.00;102617.97;5034081;28;20410;-66
2023/09/03 05:09:55;;;;;;;14.50;12.63;;;;;;;13.31;100.00;102617.97;5034196;28;20143;-67
2023/09/03 05:12:21;;;;;;;15.35;13.10;;;;;;;13.38;100.00;102615.56;5031728;28;20072;-67
2023/09/03 05:14:47;;;;;;;14.60;12.75;;;;;;;13.43;100.00;102623.97;5034249;28;20447;-66
2023/09/03 05:17:12;;;;;;;13.30;11.95;;;;;;;13.51;100.00;102620.56;5032651;28;20032;-67
2023/09/03 05:19:39;;;;;;;11.75;10.68;;;;;;;13.51;100.00;102616.06;5035135;28;20702;-67
2023/09/03 05:22:04;;;;;;;11.52;10.40;;;;;;;13.56;100.00;102619.13;5026472;28;20039;-67
2023/09/03 05:24:29;;;;;;;13.93;12.40;;;;;;;13.54;100.00;102622.94;5029079;28;20029;-67
2023/09/03 05:26:54;;;;;;;14.38;12.32;;;;;;;13.51;100.00;102626.75;5027940;28;20029;-66
2023/09/03 05:29:20;;;;;;;14.05;12.07;;;;;;;13.47;100.00;102621.84;5034956;28;20035;-66
2023/09/03 05:31:45;;;;;;;13.90;12.40;;;;;;;13.49;100.00;102627.88;5036227;28;20021;-66
2023/09/03 05:34:10;;;;;;;13.80;12.40;;;;;;;13.53;100.00;102638.09;5032282;28;20044;-66
2023/09/03 05:36:35;;;;;;;15.85;14.02;;;;;;;13.58;100.00;102633.16;5036836;28;20079;-66
2023/09/03 05:39:01;;;;;;;14.82;12.32;;;;;;;13.60;100.00;102635.72;5033459;28;20933;-66
2023/09/03 05:41:27;;;;;;;18.23;12.35;;;;;;;13.55;100.00;102632.63;5033975;28;20383;-66
2023/09/03 05:43:53;;;;;;;14.05;12.65;;;;;;;13.51;100.00;102628.56;5035195;28;20514;-66
2023/09/03 05:46:19;;;;;;;15.43;13.82;;;;;;;13.46;100.00;102625.50;5032174;28;20021;-66
2023/09/03 05:48:44;;;;;;;16.40;14.40;;;;;;;13.51;100.00;102626.75;5034137;28;20035;-66
2023/09/03 05:51:09;;;;;;;17.08;14.50;;;;;;;13.59;100.00;102640.22;5035539;28;20441;-66
2023/09/03 05:53:35;;;;;;;16.30;14.55;;;;;;;13.63;100.00;102635.44;5032825;28;20039;-66
2023/09/03 05:56:05;;;;;;;15.27;13.68;;;;;;;13.64;100.00;102635.28;5038984;28;20100;-66
2023/09/03 05:58:31;;;;;;;15.15;13.65;;;;;;;13.65;100.00;102641.47;5035674;28;20499;-67
2023/09/03 06:00:56;;;;;;;18.25;14.35;;;;;;;13.69;100.00;102637.50;5038641;28;20082;-67
2023/09/03 06:03:22;;;;;;;16.35;14.43;;;;;;;13.79;100.00;102648.13;5034533;28;20817;-66
2023/09/03 06:05:47;;;;;;;17.20;14.93;;;;;;;13.86;100.00;102652.72;5033639;28;20033;-66
2023/09/03 06:08:12;;;;;;;17.30;13.77;;;;;;;13.93;100.00;102653.84;5035699;28;20039;-66
2023/09/03 06:10:37;;;;;;;17.67;14.23;;;;;;;13.99;100.00;102668.44;5035050;28;20025;-67
2023/09/03 06:13:03;;;;;;;16.42;14.73;;;;;;;14.03;100.00;102671.63;5035716;28;20056;-66
2023/09/03 06:15:28;;;;;;;16.83;13.93;;;;;;;14.03;100.00;102675.16;5033371;28;20025;-67
2023/09/03 06:17:54;;;;;;;15.55;13.38;;;;;;;14.04;100.00;102666.16;5047238;28;20024;-67
2023/09/03 06:20:19;;;;;;;16.13;14.43;;;;;;;14.17;100.00;102692.53;5048221;28;20102;-67
2023/09/03 06:22:44;;;;;;;18.15;16.20;;;;;;;14.22;100.00;102685.75;5040948;28;20113;-66
2023/09/03 06:25:10;;;;;;;20.98;15.25;;;;;;;14.27;100.00;102690.63;5037968;28;20498;-67
2023/09/03 06:27:35;;;;;;;21.33;18.52;;;;;;;14.34;100.00;102693.53;5039757;28;20036;-66
2023/09/03 06:30:00;;;;;;;25.13;19.67;;;;;;;14.39;100.00;102696.59;5035271;28;20040;-67
2023/09/03 06:32:27;;;;;;;24.55;20.17;;;;;;;14.45;100.00;102696.88;5036521;28;20025;-67
2023/09/03 06:34:52;;;;;;;24.92;21.25;;;;;;;14.51;100.00;102701.63;5040051;28;20616;-66
2023/09/03 06:37:18;;;;;;;24.55;19.77;;;;;;;14.55;100.00;102708.38;5050456;28;20111;-66
2023/09/03 06:39:43;;;;;;;22.70;19.65;;;;;;;14.62;100.00;102718.44;5033270;28;20440;-66
2023/09/03 06:42:08;;;;;;;26.73;20.88;;;;;;;14.65;100.00;102718.97;5041606;28;20026;-66
2023/09/03 06:44:34;;;;;;;24.48;20.38;;;;;;;14.70;100.00;102726.53;5037057;28;20090;-66
2023/09/03 06:46:59;;;;;;;24.67;21.60;;;;;;;14.75;100.00;102724.28;5035477;28;20029;-66
2023/09/03 06:49:24;;;;;;;23.77;21.13;;;;;;;14.85;100.00;102733.06;5037109;28;20486;-66
2023/09/03 06:51:51;;;;;;;25.88;21.38;;;;;;;14.92;100.00;102731.47;5037991;28;20107;-66
2023/09/03 06:54:16;;;;;;;24.85;21.85;;;;;;;15.01;100.00;102729.69;5034927;28;20025;-66
2023/09/03 06:56:41;;;;;;;30.17;23.17;;;;;;;15.07;100.00;102734.44;5035348;28;20082;-66
2023/09/03 06:59:07;;;;;;;25.25;22.02;;;;;;;15.13;100.00;102737.34;5037874;28;20126;-66
2023/09/03 07:01:32;;;;;;;27.15;22.92;;;;;;;15.17;100.00;102737.88;5040003;28;20040;-67
2023/09/03 07:03:57;;;;;;;24.52;21.73;;;;;;;15.22;100.00;102734.72;5034883;28;20033;-67
2023/09/03 07:06:23;;;;;;;27.48;22.40;;;;;;;15.26;100.00;102736.09;5035360;28;20073;-67
2023/09/03 07:08:52;;;;;;;26.70;22.50;;;;;;;15.29;100.00;102739.31;5036346;28;20017;-67
2023/09/03 07:11:17;;;;;;;33.58;22.65;;;;;;;15.32;100.00;102730.97;5035878;28;20116;-67
2023/09/03 07:13:42;;;;;;;26.23;22.88;;;;;;;15.36;100.00;102728.84;5043309;28;20154;-67
2023/09/03 07:16:07;;;;;;;28.05;22.77;;;;;;;15.40;100.00;102724.84;5038166;28;20036;-67
2023/09/03 07:18:33;;;;;;;25.58;22.77;;;;;;;15.46;100.00;102732.25;5034181;28;20190;-67
2023/09/03 07:21:06;;;;;;;29.35;23.83;;;;;;;15.50;100.00;102741.66;5039977;28;20390;-67
2023/09/03 07:23:32;;;;;;;26.92;23.02;;;;;;;15.54;100.00;102740.31;5036152;28;20036;-67
2023/09/03 07:26:04;;;;;;;28.73;22.73;;;;;;;15.62;100.00;102748.47;5032057;28;20028;-67
2023/09/03 07:28:30;;;;;;;26.90;22.05;;;;;;;15.70;100.00;102743.16;5035001;28;20060;-67
2023/09/03 07:30:55;;;;;;;27.83;21.60;;;;;;;15.79;100.00;102750.25;5029395;28;20029;-67
2023/09/03 07:33:20;;;;;;;24.42;21.02;;;;;;;15.84;100.00;102749.75;5040923;28;20403;-67
2023/09/03 07:35:46;;;;;;;27.88;20.83;;;;;;;15.89;100.00;102760.00;5031099;28;20025;-67
2023/09/03 07:38:11;;;;;;;24.65;19.92;;;;;;;15.95;100.00;102754.03;5033750;28;20498;-67
2023/09/03 07:40:39;;;;;;;23.90;19.67;;;;;;;15.94;100.00;102765.75;5034496;28;20082;-67
2023/09/03 07:43:05;;;;;;;25.52;20.52;;;;;;;16.04;100.00;102769.16;5031441;28;20037;-68
2023/09/03 07:45:30;;;;;;;27.08;20.40;;;;;;;16.10;100.00;102766.66;5035162;28;20056;-68
2023/09/03 07:47:56;;;;;;;27.10;21.17;;;;;;;16.20;100.00;102777.28;5036187;28;20025;-68
2023/09/03 07:50:21;;;;;;;26.50;20.92;;;;;;;16.23;100.00;102774.28;5032830;28;20053;-68
2023/09/03 07:52:46;;;;;;;25.00;20.88;;;;;;;16.30;100.00;102772.63;5034055;28;20033;-67
2023/09/03 07:55:12;;;;;;;26.33;20.92;;;;;;;16.31;100.00;102773.47;5034193;28;20069;-67
2023/09/03 07:57:37;;;;;;;27.83;20.75;;;;;;;16.40;100.00;102769.81;5032759;28;20039;-67
2023/09/03 08:00:03;;;;;;;27.85;22.00;;;;;;;16.47;100.00;102772.69;5030568;28;20414;-67
2023/09/03 08:02:29;;;;;;;28.20;21.52;;;;;;;16.53;100.00;102774.75;5031195;28;20140;-67
2023/09/03 08:04:54;;;;;;;26.08;20.05;;;;;;;16.60;100.00;102773.91;5045113;28;20111;-67
2023/09/03 08:07:20;;;;;;;24.67;20.77;;;;;;;16.64;100.00;102769.06;5028048;28;20086;-68
2023/09/03 08:09:45;;;;;;;29.10;20.83;;;;;;;16.74;100.00;102764.41;5029051;28;20025;-68
2023/09/03 08:12:10;;;;;;;26.90;21.20;;;;;;;16.83;100.00;102763.44;5033736;28;20026;-68
2023/09/03 08:14:37;;;;;;;27.10;20.95;;;;;;;16.93;100.00;102763.28;5029264;28;20441;-67
2023/09/03 08:17:02;;;;;;;24.23;20.58;;;;;;;17.00;100.00;102759.78;5034812;28;20017;-67
2023/09/03 08:19:27;;;;;;;25.50;20.52;;;;;;;17.08;100.00;102753.59;5033292;28;20108;-68
2023/09/03 08:21:52;;;;;;;26.48;20.30;;;;;;;17.17;99.59;102766.00;5032657;28;20499;-68
2023/09/03 08:24:18;;;;;;;28.20;20.92;;;;;;;17.28;99.62;102757.59;5037034;28;20032;-68
2023/09/03 08:26:43;;;;;;;25.58;21.10;;;;;;;17.38;99.58;102764.69;5031245;28;20037;-68
2023/09/03 08:29:08;;;;;;;23.15;19.95;;;;;;;17.46;99.61;102756.59;5034046;28;20609;-68
2023/09/03 08:31:34;;;;;;;24.00;20.00;;;;;;;17.47;98.84;102763.66;5040061;28;20024;-68
2023/09/03 08:33:59;;;;;;;28.08;20.50;;;;;;;17.56;98.63;102766.16;5029667;28;20021;-68
2023/09/03 08:36:24;;;;;;;23.77;20.95;;;;;;;17.62;98.52;102764.63;5030643;28;20096;-68
2023/09/03 08:38:50;;;;;;;23.13;20.27;;;;;;;17.75;98.47;102774.91;5035702;28;20033;-68
2023/09/03 08:41:18;;;;;;;25.20;20.77;;;;;;;17.82;98.23;102781.28;5030323;28;20021;-68
2023/09/03 08:43:48;;;;;;;27.58;21.00;;;;;;;17.91;98.09;102783.75;5034698;28;20032;-68
2023/09/03 08:46:16;;;;;;;25.33;20.67;;;;;;;18.03;97.82;102784.25;5028211;28;20018;-67
2023/09/03 08:48:42;;;;;;;22.27;19.42;;;;;;;18.08;97.29;102783.72;5028345;28;20044;-67
2023/09/03 08:51:09;;;;;;;24.58;20.38;;;;;;;18.21;97.08;102787.56;5040087;28;20075;-68
2023/09/03 08:53:36;;;;;;;25.77;20.63;;;;;;;18.29;96.71;102781.31;5028067;28;20038;-68
2023/09/03 08:56:02;;;;;;;22.20;19.73;;;;;;;18.34;95.90;102778.94;5046216;28;20108;-68
2023/09/03 08:58:27;;;;;;;24.63;20.00;;;;;;;18.47;95.65;102773.81;5041186;28;20047;-68
2023/09/03 09:00:54;;;;;;;24.45;19.73;;;;;;;18.55;95.23;102776.50;5043902;28;20017;-68
2023/09/03 09:03:24;;;;;;;22.05;19.13;;;;;;;18.63;95.09;102772.94;5039913;28;20024;-68
2023/09/03 09:05:51;;;;;;;23.50;19.48;;;;;;;18.72;94.76;102782.63;5046696;28;20104;-68
2023/09/03 09:08:17;;;;;;;24.23;18.73;;;;;;;18.79;94.53;102774.69;5039593;28;20452;-68
2023/09/03 09:10:50;;;;;;;19.88;17.38;;;;;;;18.84;94.26;102775.84;5037486;28;20087;-68
2023/09/03 09:13:20;;;;;;;19.83;17.65;;;;;;;18.92;93.08;102779.50;5045679;28;20134;-68
2023/09/03 09:15:45;;;;;;;19.75;17.58;;;;;;;18.98;92.94;102778.78;5046358;28;20104;-67
2023/09/03 09:18:11;;;;;;;19.92;15.85;;;;;;;19.00;91.74;102788.34;5050827;28;20621;-68
2023/09/03 09:20:40;;;;;;;25.75;17.13;;;;;;;19.05;90.57;102785.13;5046643;28;20028;-68
2023/09/03 09:23:07;;;;;;;;;;;;;;;19.19;91.06;102781.66;5042778;28;20021;-67
2023/09/03 09:25:33;;;;;;;15.45;12.75;;;;;;;19.16;89.54;102788.25;5033477;28;19917;-67
2023/09/03 09:28:09;;;;;;;13.75;11.48;;;;;;;19.28;87.45;102785.97;5049156;28;20036;-67
2023/09/03 09:30:34;;;;;;;20.17;14.23;;;;;;;19.33;87.12;102778.16;5051100;28;20040;-67
2023/09/03 09:33:07;;;;;;;16.90;13.02;;;;;;;19.43;86.11;102781.47;5049440;28;20028;-67
2023/09/03 09:35:33;;;;;;;16.98;12.50;;;;;;;19.48;85.00;102776.38;5035408;28;20033;-67
2023/09/03 09:38:05;;;;;;;14.15;12.18;;;;;;;19.57;84.05;102776.31;5040184;28;20025;-67
2023/09/03 09:40:31;;;;;;;13.95;11.80;;;;;;;19.61;83.56;102769.53;5047526;28;20368;-67
2023/09/03 09:42:59;;;;;;;20.67;14.50;;;;;;;19.70;82.98;102763.91;5050565;28;20059;-67
2023/09/03 09:45:24;;;;;;;14.27;12.77;;;;;;;19.75;82.67;102766.88;5051205;28;20116;-67
2023/09/03 09:48:06;;;;;;;15.20;11.77;;;;;;;19.84;81.60;102772.19;5039354;28;20105;-68
2023/09/03 09:50:39;;;;;;;19.55;13.07;;;;;;;19.90;81.41;102766.03;5037548;28;20025;-67
2023/09/03 09:53:18;;;;;;;19.08;12.40;;;;;;;19.97;80.56;102765.13;5044053;28;20276;-67
2023/09/03 09:55:44;;;;;;;18.67;14.88;;;;;;;20.06;80.63;102764.00;5043416;28;20029;-68
2023/09/03 09:58:12;;;;;;;15.52;13.10;;;;;;;20.19;80.39;102774.13;5041664;28;20028;-68
2023/09/03 10:00:39;;;;;;;15.07;12.15;;;;;;;20.27;79.92;102768.66;5035926;28;20573;-67
2023/09/03 10:03:05;;;;;;;12.88;10.43;;;;;;;20.34;78.50;102761.47;5030251;28;20057;-69
2023/09/03 10:05:31;;;;;;;14.23;11.75;;;;;;;20.46;78.52;102766.41;5038727;28;20056;-69
2023/09/03 10:07:58;;;;;;;17.20;13.32;;;;;;;20.52;78.71;102763.78;5035222;28;20025;-68
2023/09/03 10:10:24;;;;;;;14.05;12.07;;;;;;;20.54;78.11;102764.47;5047899;28;20021;-67
2023/09/03 10:12:49;;;;;;;21.60;13.27;;;;;;;20.72;78.16;102766.72;5045880;28;20025;-67
2023/09/03 10:15:14;;;;;;;17.10;13.48;;;;;;;20.84;78.14;102773.31;5049826;28;20524;-68
2023/09/03 10:17:41;;;;;;;15.65;14.05;;;;;;;20.91;77.34;102762.56;5050312;28;20107;-68
2023/09/03 10:20:14;;;;;;;15.07;13.13;;;;;;;21.03;76.66;102759.16;5035683;28;20505;-67
2023/09/03 10:22:41;;;;;;;16.38;13.85;;;;;;;21.10;76.52;102764.59;5040983;28;20045;-68
2023/09/03 10:25:10;;;;;;;14.35;12.80;;;;;;;21.24;75.82;102760.22;5048272;28;20505;-68
2023/09/03 10:27:40;;;;;;;18.00;13.95;;;;;;;21.39;75.63;102750.13;5049968;28;20029;-67
2023/09/03 10:30:09;;;;;;;18.05;13.90;;;;;;;21.47;74.71;102760.00;5045512;28;20029;-67
2023/09/03 10:32:36;;;;;;;15.88;14.07;;;;;;;21.65;75.27;102760.31;5042790;28;20021;-68
2023/09/03 10:35:12;;;;;;;15.48;13.82;;;;;;;21.78;74.99;102765.00;5043510;28;20020;-67
2023/09/03 10:37:38;;;;;;;15.25;12.85;;;;;;;21.77;74.53;102763.34;5046967;28;20116;-67
2023/09/03 10:40:21;;;;;;;16.73;13.00;;;;;;;21.87;73.84;102764.63;5040467;28;20645;-67
2023/09/03 10:42:54;;;;;;;12.32;10.98;;;;;;;22.02;74.05;102771.81;5050344;28;20025;-67
2023/09/03 10:45:19;;;;;;;14.93;12.30;;;;;;;22.10;73.40;102769.81;5046619;28;20021;-67
2023/09/03 10:48:05;;;;;;;13.18;11.20;;;;;;;22.27;72.54;102778.44;5042511;28;20025;-67
2023/09/03 10:50:48;;;;;;;13.98;10.45;;;;;;;22.34;71.70;102768.47;5035880;28;20047;-67
2023/09/03 10:53:46;;;;;;;13.13;10.00;;;;;;;22.42;70.06;102770.16;5041533;28;20521;-68
2023/09/03 10:56:15;;;;;;;12.63;10.70;;;;;;;22.42;69.63;102772.88;5039879;28;20060;-68
2023/09/03 10:58:57;;;;;;;10.65;8.90;;;;;;;22.41;69.10;102768.50;5043870;28;20033;-68
2023/09/03 11:01:26;;;;;;;12.88;10.90;;;;;;;22.48;68.74;102766.63;5044414;28;20108;-68
2023/09/03 11:03:54;;;;;;;13.13;10.32;;;;;;;22.50;68.64;102768.09;5043886;28;20021;-67
2023/09/03 11:06:27;;;;;;;12.55;11.20;;;;;;;22.58;67.66;102766.28;5041535;28;20436;-68